sensor_id;sensor_type;location;lat;lon;timestamp;pressure;altitude;pressure_sealevel;temperature;humidity
68380;BME280;57711;53.196;19.638;2023-02-28T00:01:08;101697.26;;;-0.43;58.15
68380;BME280;57711;53.196;19.638;2023-02-28T00:03:35;101697.85;;;-0.46;58.12
68380;BME280;57711;53.196;19.638;2023-02-28T00:06:04;101702.35;;;-0.48;58.08
68380;BME280;57711;53.196;19.638;2023-02-28T00:08:32;101704.16;;;-0.50;58.18
68380;BME280;57711;53.196;19.638;2023-02-28T00:11:08;101705.63;;;-0.52;58.15
68380;BME280;57711;53.196;19.638;2023-02-28T00:13:38;101707.80;;;-0.54;58.26
68380;BME280;57711;53.196;19.638;2023-02-28T00:16:08;101706.77;;;-0.56;58.19
68380;BME280;57711;53.196;19.638;2023-02-28T00:18:36;101703.77;;;-0.58;58.10
68380;BME280;57711;53.196;19.638;2023-02-28T00:21:04;101702.58;;;-0.60;58.35
68380;BME280;57711;53.196;19.638;2023-02-28T00:23:32;101708.13;;;-0.63;58.15
68380;BME280;57711;53.196;19.638;2023-02-28T00:25:59;101714.23;;;-0.65;58.05
68380;BME280;57711;53.196;19.638;2023-02-28T00:28:26;101712.52;;;-0.69;58.19
68380;BME280;57711;53.196;19.638;2023-02-28T00:30:54;101710.95;;;-0.70;58.11
68380;BME280;57711;53.196;19.638;2023-02-28T00:33:21;101707.97;;;-0.72;58.21
68380;BME280;57711;53.196;19.638;2023-02-28T00:35:48;101708.48;;;-0.72;58.17
68380;BME280;57711;53.196;19.638;2023-02-28T00:38:16;101710.65;;;-0.74;58.18
68380;BME280;57711;53.196;19.638;2023-02-28T00:40:43;101712.48;;;-0.76;58.17
68380;BME280;57711;53.196;19.638;2023-02-28T00:43:10;101710.70;;;-0.77;58.19
68380;BME280;57711;53.196;19.638;2023-02-28T00:45:37;101711.55;;;-0.73;58.05
68380;BME280;57711;53.196;19.638;2023-02-28T00:48:05;101713.62;;;-0.70;58.10
68380;BME280;57711;53.196;19.638;2023-02-28T00:50:33;101717.81;;;-0.67;58.14
68380;BME280;57711;53.196;19.638;2023-02-28T00:53:00;101723.66;;;-0.66;58.06
68380;BME280;57711;53.196;19.638;2023-02-28T00:55:27;101721.86;;;-0.65;58.09
68380;BME280;57711;53.196;19.638;2023-02-28T00:57:54;101724.38;;;-0.66;58.11
68380;BME280;57711;53.196;19.638;2023-02-28T01:00:21;101725.99;;;-0.68;58.17
68380;BME280;57711;53.196;19.638;2023-02-28T01:02:49;101726.23;;;-0.71;58.11
68380;BME280;57711;53.196;19.638;2023-02-28T01:05:17;101725.55;;;-0.72;58.15
68380;BME280;57711;53.196;19.638;2023-02-28T01:07:44;101730.20;;;-0.74;58.09
68380;BME280;57711;53.196;19.638;2023-02-28T01:10:11;101732.00;;;-0.75;58.12
68380;BME280;57711;53.196;19.638;2023-02-28T01:12:38;101727.78;;;-0.78;58.06
68380;BME280;57711;53.196;19.638;2023-02-28T01:15:10;101728.19;;;-0.81;58.17
68380;BME280;57711;53.196;19.638;2023-02-28T01:17:37;101733.56;;;-0.84;58.10
68380;BME280;57711;53.196;19.638;2023-02-28T01:20:05;101733.80;;;-0.86;58.14
68380;BME280;57711;53.196;19.638;2023-02-28T01:22:34;101734.90;;;-0.88;58.23
68380;BME280;57711;53.196;19.638;2023-02-28T01:25:02;101731.38;;;-0.90;58.16
68380;BME280;57711;53.196;19.638;2023-02-28T01:27:31;101733.92;;;-0.94;58.14
68380;BME280;57711;53.196;19.638;2023-02-28T01:29:58;101730.62;;;-0.98;58.09
68380;BME280;57711;53.196;19.638;2023-02-28T01:32:25;101730.46;;;-0.99;58.11
68380;BME280;57711;53.196;19.638;2023-02-28T01:34:53;101728.92;;;-1.02;58.11
68380;BME280;57711;53.196;19.638;2023-02-28T01:37:22;101726.67;;;-1.04;58.15
68380;BME280;57711;53.196;19.638;2023-02-28T01:39:49;101727.75;;;-1.05;58.29
68380;BME280;57711;53.196;19.638;2023-02-28T01:42:19;101732.38;;;-1.06;58.28
68380;BME280;57711;53.196;19.638;2023-02-28T01:47:27;101729.77;;;-1.09;58.12
68380;BME280;57711;53.196;19.638;2023-02-28T01:49:57;101730.33;;;-1.11;58.16
68380;BME280;57711;53.196;19.638;2023-02-28T01:52:25;101733.06;;;-1.16;58.17
68380;BME280;57711;53.196;19.638;2023-02-28T01:54:55;101736.14;;;-1.19;58.23
68380;BME280;57711;53.196;19.638;2023-02-28T01:57:27;101737.52;;;-1.17;58.10
68380;BME280;57711;53.196;19.638;2023-02-28T02:00:08;101735.72;;;-1.15;58.06
68380;BME280;57711;53.196;19.638;2023-02-28T02:02:39;101732.10;;;-1.11;58.13
68380;BME280;57711;53.196;19.638;2023-02-28T02:05:12;101731.52;;;-1.08;58.07
68380;BME280;57711;53.196;19.638;2023-02-28T02:07:43;101730.60;;;-1.06;58.03
68380;BME280;57711;53.196;19.638;2023-02-28T02:10:14;101733.98;;;-1.06;58.03
68380;BME280;57711;53.196;19.638;2023-02-28T02:30:18;101723.63;;;-1.14;58.09
68380;BME280;57711;53.196;19.638;2023-02-28T02:38:08;101728.35;;;-1.30;58.05
68380;BME280;57711;53.196;19.638;2023-02-28T02:40:43;101725.23;;;-1.36;58.14
68380;BME280;57711;53.196;19.638;2023-02-28T02:43:16;101721.92;;;-1.39;57.98
68380;BME280;57711;53.196;19.638;2023-02-28T02:45:51;101724.10;;;-1.43;58.08
68380;BME280;57711;53.196;19.638;2023-02-28T02:48:25;101726.11;;;-1.45;58.07
68380;BME280;57711;53.196;19.638;2023-02-28T02:50:59;101731.96;;;-1.46;58.09
68380;BME280;57711;53.196;19.638;2023-02-28T02:53:34;101729.83;;;-1.46;58.14
68380;BME280;57711;53.196;19.638;2023-02-28T02:56:03;101730.95;;;-1.48;58.11
68380;BME280;57711;53.196;19.638;2023-02-28T02:58:37;101734.88;;;-1.51;58.06
68380;BME280;57711;53.196;19.638;2023-02-28T03:01:15;101738.79;;;-1.52;58.04
68380;BME280;57711;53.196;19.638;2023-02-28T03:03:45;101740.93;;;-1.53;58.11
68380;BME280;57711;53.196;19.638;2023-02-28T03:06:14;101740.77;;;-1.53;58.14
68380;BME280;57711;53.196;19.638;2023-02-28T03:08:41;101735.11;;;-1.55;58.07
68380;BME280;57711;53.196;19.638;2023-02-28T03:11:13;101734.42;;;-1.56;58.09
68380;BME280;57711;53.196;19.638;2023-02-28T03:16:48;101736.78;;;-1.59;58.09
68380;BME280;57711;53.196;19.638;2023-02-28T03:19:37;101737.14;;;-1.61;58.09
68380;BME280;57711;53.196;19.638;2023-02-28T03:22:18;101739.64;;;-1.62;58.08
68380;BME280;57711;53.196;19.638;2023-02-28T03:24:51;101743.23;;;-1.64;58.01
68380;BME280;57711;53.196;19.638;2023-02-28T03:27:30;101745.03;;;-1.65;58.02
68380;BME280;57711;53.196;19.638;2023-02-28T03:30:14;101750.30;;;-1.62;58.17
68380;BME280;57711;53.196;19.638;2023-02-28T03:32:58;101749.40;;;-1.62;58.18
68380;BME280;57711;53.196;19.638;2023-02-28T03:35:32;101747.81;;;-1.61;58.10
68380;BME280;57711;53.196;19.638;2023-02-28T03:38:06;101749.77;;;-1.62;58.04
68380;BME280;57711;53.196;19.638;2023-02-28T03:40:37;101752.27;;;-1.63;58.06
68380;BME280;57711;53.196;19.638;2023-02-28T03:43:10;101749.19;;;-1.59;58.14
68380;BME280;57711;53.196;19.638;2023-02-28T03:45:41;101752.50;;;-1.54;58.02
68380;BME280;57711;53.196;19.638;2023-02-28T03:48:17;101752.44;;;-1.51;57.95
68380;BME280;57711;53.196;19.638;2023-02-28T03:50:49;101758.96;;;-1.48;57.95
68380;BME280;57711;53.196;19.638;2023-02-28T03:56:01;101756.91;;;-1.42;58.00
68380;BME280;57711;53.196;19.638;2023-02-28T03:58:39;101751.92;;;-1.40;58.06
68380;BME280;57711;53.196;19.638;2023-02-28T04:01:15;101751.39;;;-1.40;58.05
68380;BME280;57711;53.196;19.638;2023-02-28T04:03:46;101754.95;;;-1.41;58.10
68380;BME280;57711;53.196;19.638;2023-02-28T04:06:18;101756.92;;;-1.43;57.97
68380;BME280;57711;53.196;19.638;2023-02-28T04:08:45;101757.52;;;-1.46;58.06
68380;BME280;57711;53.196;19.638;2023-02-28T04:13:40;101759.71;;;-1.52;58.03
68380;BME280;57711;53.196;19.638;2023-02-28T04:16:07;101761.35;;;-1.54;58.06
68380;BME280;57711;53.196;19.638;2023-02-28T04:18:50;101764.27;;;-1.58;58.00
68380;BME280;57711;53.196;19.638;2023-02-28T04:21:17;101763.23;;;-1.61;57.97
68380;BME280;57711;53.196;19.638;2023-02-28T04:23:47;101758.86;;;-1.65;58.13
68380;BME280;57711;53.196;19.638;2023-02-28T04:26:14;101760.33;;;-1.68;58.06
68380;BME280;57711;53.196;19.638;2023-02-28T04:28:41;101765.15;;;-1.71;58.02
68380;BME280;57711;53.196;19.638;2023-02-28T04:31:09;101763.07;;;-1.74;58.04
68380;BME280;57711;53.196;19.638;2023-02-28T04:33:36;101765.77;;;-1.78;58.05
68380;BME280;57711;53.196;19.638;2023-02-28T04:36:06;101766.89;;;-1.81;57.93
68380;BME280;57711;53.196;19.638;2023-02-28T04:38:36;101769.23;;;-1.84;57.98
68380;BME280;57711;53.196;19.638;2023-02-28T04:41:04;101763.06;;;-1.86;58.01
68380;BME280;57711;53.196;19.638;2023-02-28T04:43:32;101765.91;;;-1.88;58.08
68380;BME280;57711;53.196;19.638;2023-02-28T04:46:02;101765.59;;;-1.90;58.09
68380;BME280;57711;53.196;19.638;2023-02-28T04:48:32;101762.42;;;-1.93;58.02
68380;BME280;57711;53.196;19.638;2023-02-28T04:51:01;101764.77;;;-1.96;58.10
68380;BME280;57711;53.196;19.638;2023-02-28T04:53:29;101762.66;;;-1.98;58.11
68380;BME280;57711;53.196;19.638;2023-02-28T04:55:57;101766.06;;;-1.99;57.97
68380;BME280;57711;53.196;19.638;2023-02-28T04:58:24;101765.90;;;-2.01;58.13
68380;BME280;57711;53.196;19.638;2023-02-28T05:00:52;101771.97;;;-2.03;57.93
68380;BME280;57711;53.196;19.638;2023-02-28T05:03:20;101777.85;;;-2.06;57.98
68380;BME280;57711;53.196;19.638;2023-02-28T05:05:48;101777.35;;;-2.09;57.93
68380;BME280;57711;53.196;19.638;2023-02-28T05:08:16;101775.59;;;-2.10;58.00
68380;BME280;57711;53.196;19.638;2023-02-28T05:10:43;101779.31;;;-2.11;58.05
68380;BME280;57711;53.196;19.638;2023-02-28T05:13:13;101777.39;;;-2.12;58.00
68380;BME280;57711;53.196;19.638;2023-02-28T05:15:40;101779.38;;;-2.14;58.05
68380;BME280;57711;53.196;19.638;2023-02-28T05:18:08;101777.09;;;-2.16;58.04
68380;BME280;57711;53.196;19.638;2023-02-28T05:20:36;101775.85;;;-2.18;58.01
68380;BME280;57711;53.196;19.638;2023-02-28T05:23:04;101773.23;;;-2.19;58.01
68380;BME280;57711;53.196;19.638;2023-02-28T05:25:31;101773.59;;;-2.20;58.13
68380;BME280;57711;53.196;19.638;2023-02-28T05:27:58;101768.10;;;-2.21;57.95
68380;BME280;57711;53.196;19.638;2023-02-28T05:30:25;101766.91;;;-2.25;57.90
68380;BME280;57711;53.196;19.638;2023-02-28T05:32:53;101763.59;;;-2.28;57.98
68380;BME280;57711;53.196;19.638;2023-02-28T05:35:20;101766.80;;;-2.30;57.82
68380;BME280;57711;53.196;19.638;2023-02-28T05:37:47;101767.46;;;-2.27;57.99
68380;BME280;57711;53.196;19.638;2023-02-28T05:40:14;101764.23;;;-2.24;57.98
68380;BME280;57711;53.196;19.638;2023-02-28T05:42:42;101762.41;;;-2.19;57.99
68380;BME280;57711;53.196;19.638;2023-02-28T05:45:09;101761.30;;;-2.14;58.05
68380;BME280;57711;53.196;19.638;2023-02-28T05:47:37;101761.27;;;-2.12;57.95
68380;BME280;57711;53.196;19.638;2023-02-28T05:50:05;101760.52;;;-2.08;58.14
68380;BME280;57711;53.196;19.638;2023-02-28T05:52:32;101755.33;;;-2.05;57.99
68380;BME280;57711;53.196;19.638;2023-02-28T05:54:59;101751.78;;;-2.05;58.07
68380;BME280;57711;53.196;19.638;2023-02-28T05:57:26;101751.44;;;-2.05;58.12
68380;BME280;57711;53.196;19.638;2023-02-28T05:59:53;101752.52;;;-2.07;58.11
68380;BME280;57711;53.196;19.638;2023-02-28T06:02:20;101748.46;;;-2.09;58.18
68380;BME280;57711;53.196;19.638;2023-02-28T06:04:48;101752.33;;;-2.07;58.14
68380;BME280;57711;53.196;19.638;2023-02-28T06:07:15;101752.33;;;-2.06;58.19
68380;BME280;57711;53.196;19.638;2023-02-28T06:09:44;101758.88;;;-2.05;58.13
68380;BME280;57711;53.196;19.638;2023-02-28T06:12:11;101770.03;;;-2.04;58.26
68380;BME280;57711;53.196;19.638;2023-02-28T06:14:38;101771.77;;;-2.02;58.19
68380;BME280;57711;53.196;19.638;2023-02-28T06:17:05;101775.27;;;-1.99;58.31
68380;BME280;57711;53.196;19.638;2023-02-28T06:19:33;101782.38;;;-1.99;58.30
68380;BME280;57711;53.196;19.638;2023-02-28T06:22:00;101789.44;;;-1.97;58.37
68380;BME280;57711;53.196;19.638;2023-02-28T06:24:27;101796.69;;;-1.95;58.42
68380;BME280;57711;53.196;19.638;2023-02-28T06:26:55;101790.95;;;-1.91;58.42
68380;BME280;57711;53.196;19.638;2023-02-28T06:29:22;101793.54;;;-1.85;58.50
68380;BME280;57711;53.196;19.638;2023-02-28T06:31:49;101801.26;;;-1.80;58.48
68380;BME280;57711;53.196;19.638;2023-02-28T06:34:17;101801.73;;;-1.75;58.46
68380;BME280;57711;53.196;19.638;2023-02-28T06:36:44;101808.20;;;-1.68;58.59
68380;BME280;57711;53.196;19.638;2023-02-28T06:39:11;101806.86;;;-1.62;58.48
68380;BME280;57711;53.196;19.638;2023-02-28T06:41:38;101809.63;;;-1.56;58.55
68380;BME280;57711;53.196;19.638;2023-02-28T06:44:22;101813.09;;;-1.49;58.52
68380;BME280;57711;53.196;19.638;2023-02-28T06:46:50;101818.13;;;-1.42;58.58
68380;BME280;57711;53.196;19.638;2023-02-28T06:49:17;101817.64;;;-1.34;58.65
68380;BME280;57711;53.196;19.638;2023-02-28T06:51:44;101821.60;;;-1.25;58.67
68380;BME280;57711;53.196;19.638;2023-02-28T06:54:12;101821.66;;;-1.18;58.76
68380;BME280;57711;53.196;19.638;2023-02-28T06:56:39;101820.45;;;-1.08;58.68
68380;BME280;57711;53.196;19.638;2023-02-28T06:59:06;101826.63;;;-0.95;58.84
68380;BME280;57711;53.196;19.638;2023-02-28T07:01:34;101825.89;;;-0.82;58.70
68380;BME280;57711;53.196;19.638;2023-02-28T07:04:01;101832.23;;;-0.69;58.78
68380;BME280;57711;53.196;19.638;2023-02-28T07:06:28;101833.98;;;-0.57;58.68
68380;BME280;57711;53.196;19.638;2023-02-28T07:08:55;101834.31;;;-0.46;58.76
68380;BME280;57711;53.196;19.638;2023-02-28T07:11:26;101836.42;;;-0.34;58.82
68380;BME280;57711;53.196;19.638;2023-02-28T07:13:55;101830.64;;;-0.20;58.98
68380;BME280;57711;53.196;19.638;2023-02-28T07:16:24;101830.77;;;-0.08;58.96
68380;BME280;57711;53.196;19.638;2023-02-28T07:18:52;101830.20;;;0.03;58.95
68380;BME280;57711;53.196;19.638;2023-02-28T07:21:20;101829.33;;;0.10;58.92
68380;BME280;57711;53.196;19.638;2023-02-28T07:23:48;101826.71;;;0.16;59.00
68380;BME280;57711;53.196;19.638;2023-02-28T07:26:17;101822.80;;;0.25;59.04
68380;BME280;57711;53.196;19.638;2023-02-28T07:28:46;101821.89;;;0.34;59.14
68380;BME280;57711;53.196;19.638;2023-02-28T07:31:14;101818.28;;;0.44;59.12
68380;BME280;57711;53.196;19.638;2023-02-28T07:33:42;101815.92;;;0.54;59.23
68380;BME280;57711;53.196;19.638;2023-02-28T07:36:14;101814.48;;;0.63;59.11
68380;BME280;57711;53.196;19.638;2023-02-28T07:38:43;101813.77;;;0.71;59.24
68380;BME280;57711;53.196;19.638;2023-02-28T07:41:18;101811.84;;;0.78;59.09
68380;BME280;57711;53.196;19.638;2023-02-28T07:43:46;101810.42;;;0.85;59.23
68380;BME280;57711;53.196;19.638;2023-02-28T07:46:15;101810.64;;;0.98;59.31
68380;BME280;57711;53.196;19.638;2023-02-28T07:48:44;101810.33;;;1.10;59.30
68380;BME280;57711;53.196;19.638;2023-02-28T07:51:11;101812.87;;;1.23;59.34
68380;BME280;57711;53.196;19.638;2023-02-28T07:53:39;101812.02;;;1.35;59.35
68380;BME280;57711;53.196;19.638;2023-02-28T07:56:06;101808.55;;;1.45;59.36
68380;BME280;57711;53.196;19.638;2023-02-28T07:58:33;101804.88;;;1.55;59.37
68380;BME280;57711;53.196;19.638;2023-02-28T08:01:08;101805.52;;;1.65;59.30
68380;BME280;57711;53.196;19.638;2023-02-28T08:03:36;101802.20;;;1.75;59.30
68380;BME280;57711;53.196;19.638;2023-02-28T08:06:05;101804.38;;;1.81;59.11
68380;BME280;57711;53.196;19.638;2023-02-28T08:08:32;101805.72;;;1.90;59.33
68380;BME280;57711;53.196;19.638;2023-02-28T08:11:01;101806.66;;;2.01;59.39
68380;BME280;57711;53.196;19.638;2023-02-28T08:13:29;101803.31;;;2.12;59.43
68380;BME280;57711;53.196;19.638;2023-02-28T08:15:57;101798.14;;;2.24;59.38
68380;BME280;57711;53.196;19.638;2023-02-28T08:18:24;101796.38;;;2.35;59.38
68380;BME280;57711;53.196;19.638;2023-02-28T08:20:51;101790.27;;;2.42;59.14
68380;BME280;57711;53.196;19.638;2023-02-28T08:23:19;101789.78;;;2.47;59.23
68380;BME280;57711;53.196;19.638;2023-02-28T08:25:53;101790.83;;;2.53;59.18
68380;BME280;57711;53.196;19.638;2023-02-28T08:28:21;101787.88;;;2.67;59.39
68380;BME280;57711;53.196;19.638;2023-02-28T08:30:51;101779.08;;;2.80;59.22
68380;BME280;57711;53.196;19.638;2023-02-28T08:33:18;101778.57;;;2.90;59.25
68380;BME280;57711;53.196;19.638;2023-02-28T08:35:46;101780.23;;;2.99;59.21
68380;BME280;57711;53.196;19.638;2023-02-28T08:38:13;101780.02;;;3.06;59.16
68380;BME280;57711;53.196;19.638;2023-02-28T08:40:40;101776.34;;;3.09;58.85
68380;BME280;57711;53.196;19.638;2023-02-28T08:43:07;101770.82;;;3.09;58.87
68380;BME280;57711;53.196;19.638;2023-02-28T08:45:34;101774.70;;;3.10;58.93
68380;BME280;57711;53.196;19.638;2023-02-28T08:48:01;101771.70;;;3.14;58.98
68380;BME280;57711;53.196;19.638;2023-02-28T08:50:28;101775.06;;;3.20;58.91
68380;BME280;57711;53.196;19.638;2023-02-28T08:52:55;101772.31;;;3.22;59.02
68380;BME280;57711;53.196;19.638;2023-02-28T08:55:23;101775.18;;;3.32;59.10
68380;BME280;57711;53.196;19.638;2023-02-28T08:57:50;101775.20;;;3.42;59.05
68380;BME280;57711;53.196;19.638;2023-02-28T09:00:18;101768.50;;;3.50;58.92
68380;BME280;57711;53.196;19.638;2023-02-28T09:02:45;101766.27;;;3.57;58.94
68380;BME280;57711;53.196;19.638;2023-02-28T09:05:12;101768.81;;;3.70;59.06
68380;BME280;57711;53.196;19.638;2023-02-28T09:07:39;101771.95;;;3.83;59.05
68380;BME280;57711;53.196;19.638;2023-02-28T09:10:07;101773.23;;;3.82;58.76
68380;BME280;57711;53.196;19.638;2023-02-28T09:12:35;101774.36;;;3.75;58.71
68380;BME280;57711;53.196;19.638;2023-02-28T09:15:02;101783.86;;;3.75;58.78
68380;BME280;57711;53.196;19.638;2023-02-28T09:17:30;101783.25;;;3.82;58.84
68380;BME280;57711;53.196;19.638;2023-02-28T09:19:57;101782.86;;;3.93;58.95
68380;BME280;57711;53.196;19.638;2023-02-28T09:22:25;101777.95;;;4.09;59.16
68380;BME280;57711;53.196;19.638;2023-02-28T09:24:52;101774.61;;;4.26;59.00
68380;BME280;57711;53.196;19.638;2023-02-28T09:27:19;101769.70;;;4.37;59.00
68380;BME280;57711;53.196;19.638;2023-02-28T09:29:46;101769.73;;;4.37;58.64
68380;BME280;57711;53.196;19.638;2023-02-28T09:32:13;101772.85;;;4.35;58.82
68380;BME280;57711;53.196;19.638;2023-02-28T09:34:40;101775.41;;;4.33;58.67
68380;BME280;57711;53.196;19.638;2023-02-28T09:37:08;101772.79;;;4.36;58.73
68380;BME280;57711;53.196;19.638;2023-02-28T09:39:35;101774.75;;;4.37;58.68
68380;BME280;57711;53.196;19.638;2023-02-28T09:42:03;101774.35;;;4.38;58.86
68380;BME280;57711;53.196;19.638;2023-02-28T09:44:38;101781.21;;;4.41;58.80
68380;BME280;57711;53.196;19.638;2023-02-28T09:47:13;101783.35;;;4.50;59.05
68380;BME280;57711;53.196;19.638;2023-02-28T09:49:44;101784.72;;;4.66;59.10
68380;BME280;57711;53.196;19.638;2023-02-28T09:52:17;101778.98;;;4.79;59.01
68380;BME280;57711;53.196;19.638;2023-02-28T09:54:46;101783.09;;;4.88;58.78
68380;BME280;57711;53.196;19.638;2023-02-28T09:57:33;101785.42;;;4.97;58.89
68380;BME280;57711;53.196;19.638;2023-02-28T10:05:35;101775.21;;;5.22;58.80
68380;BME280;57711;53.196;19.638;2023-02-28T10:10:47;101772.63;;;5.33;58.81
68380;BME280;57711;53.196;19.638;2023-02-28T10:13:23;101771.56;;;5.41;58.69
68380;BME280;57711;53.196;19.638;2023-02-28T10:15:56;101764.86;;;5.51;58.73
68380;BME280;57711;53.196;19.638;2023-02-28T10:18:29;101770.13;;;5.57;58.57
68380;BME280;57711;53.196;19.638;2023-02-28T10:20:58;101769.78;;;5.61;58.76
68380;BME280;57711;53.196;19.638;2023-02-28T10:23:35;101767.20;;;5.70;58.87
68380;BME280;57711;53.196;19.638;2023-02-28T10:26:11;101762.48;;;5.84;58.85
68380;BME280;57711;53.196;19.638;2023-02-28T10:28:40;101761.48;;;5.94;58.55
68380;BME280;57711;53.196;19.638;2023-02-28T10:31:14;101762.63;;;6.01;58.62
68380;BME280;57711;53.196;19.638;2023-02-28T10:33:43;101762.29;;;6.04;58.56
68380;BME280;57711;53.196;19.638;2023-02-28T10:36:17;101759.59;;;6.09;58.57
68380;BME280;57711;53.196;19.638;2023-02-28T10:38:47;101758.23;;;6.15;58.60
68380;BME280;57711;53.196;19.638;2023-02-28T10:41:26;101760.80;;;6.21;58.58
68380;BME280;57711;53.196;19.638;2023-02-28T10:44:14;101762.66;;;6.28;58.61
68380;BME280;57711;53.196;19.638;2023-02-28T10:46:45;101759.49;;;6.33;58.43
68380;BME280;57711;53.196;19.638;2023-02-28T10:49:15;101760.63;;;6.39;58.54
68380;BME280;57711;53.196;19.638;2023-02-28T10:51:44;101756.06;;;6.49;58.66
68380;BME280;57711;53.196;19.638;2023-02-28T10:54:19;101747.20;;;6.54;58.50
68380;BME280;57711;53.196;19.638;2023-02-28T10:57:05;101746.35;;;6.53;58.38
68380;BME280;57711;53.196;19.638;2023-02-28T10:59:33;101737.92;;;6.56;58.44
68380;BME280;57711;53.196;19.638;2023-02-28T11:02:01;101740.18;;;6.65;58.48
68380;BME280;57711;53.196;19.638;2023-02-28T11:07:20;101730.89;;;6.75;58.48
68380;BME280;57711;53.196;19.638;2023-02-28T11:09:52;101726.40;;;6.83;58.24
68380;BME280;57711;53.196;19.638;2023-02-28T11:12:25;101721.73;;;6.86;58.33
68380;BME280;57711;53.196;19.638;2023-02-28T11:15:03;101723.02;;;6.86;58.24
68380;BME280;57711;53.196;19.638;2023-02-28T11:17:31;101723.41;;;6.81;58.31
68380;BME280;57711;53.196;19.638;2023-02-28T11:20:03;101725.15;;;6.78;58.14
68380;BME280;57711;53.196;19.638;2023-02-28T11:22:38;101721.40;;;6.77;58.20
68380;BME280;57711;53.196;19.638;2023-02-28T11:25:19;101720.66;;;6.86;58.40
68380;BME280;57711;53.196;19.638;2023-02-28T11:27:55;101717.29;;;6.81;57.87
68380;BME280;57711;53.196;19.638;2023-02-28T11:33:25;101715.80;;;6.57;57.85
68380;BME280;57711;53.196;19.638;2023-02-28T11:36:00;101710.88;;;6.47;57.98
68380;BME280;57711;53.196;19.638;2023-02-28T11:38:29;101710.77;;;6.50;57.93
68380;BME280;57711;53.196;19.638;2023-02-28T11:44:28;101709.47;;;6.57;57.93
68380;BME280;57711;53.196;19.638;2023-02-28T11:46:56;101706.92;;;6.62;57.99
68380;BME280;57711;53.196;19.638;2023-02-28T11:52:20;101708.63;;;6.71;58.03
68380;BME280;57711;53.196;19.638;2023-02-28T11:54:52;101710.28;;;6.85;58.20
68380;BME280;57711;53.196;19.638;2023-02-28T12:05:24;101701.13;;;7.05;57.82
68380;BME280;57711;53.196;19.638;2023-02-28T12:08:04;101702.66;;;7.14;57.88
68380;BME280;57711;53.196;19.638;2023-02-28T12:16:23;101687.30;;;7.33;57.61
68380;BME280;57711;53.196;19.638;2023-02-28T12:19:24;101686.08;;;7.39;57.79
68380;BME280;57711;53.196;19.638;2023-02-28T12:22:31;101686.13;;;7.45;57.74
68380;BME280;57711;53.196;19.638;2023-02-28T12:25:30;101684.42;;;7.39;57.58
68380;BME280;57711;53.196;19.638;2023-02-28T12:28:04;101682.30;;;7.39;57.72
68380;BME280;57711;53.196;19.638;2023-02-28T12:30:34;101680.61;;;7.44;57.66
68380;BME280;57711;53.196;19.638;2023-02-28T12:33:12;101676.26;;;7.48;57.85
68380;BME280;57711;53.196;19.638;2023-02-28T12:36:11;101670.27;;;7.52;57.68
68380;BME280;57711;53.196;19.638;2023-02-28T12:38:45;101664.77;;;7.50;57.71
68380;BME280;57711;53.196;19.638;2023-02-28T12:41:18;101657.56;;;7.50;57.64
68380;BME280;57711;53.196;19.638;2023-02-28T12:43:58;101654.64;;;7.51;57.57
68380;BME280;57711;53.196;19.638;2023-02-28T12:46:36;101651.31;;;7.53;57.43
68380;BME280;57711;53.196;19.638;2023-02-28T12:49:14;101648.23;;;7.50;57.44
68380;BME280;57711;53.196;19.638;2023-02-28T12:51:44;101647.88;;;7.53;57.39
68380;BME280;57711;53.196;19.638;2023-02-28T12:54:22;101640.25;;;7.54;57.28
68380;BME280;57711;53.196;19.638;2023-02-28T13:05:15;101630.91;;;7.58;57.23
68380;BME280;57711;53.196;19.638;2023-02-28T13:10:50;101627.09;;;7.48;57.27
68380;BME280;57711;53.196;19.638;2023-02-28T13:13:23;101630.06;;;7.43;57.00
68380;BME280;57711;53.196;19.638;2023-02-28T13:16:10;101626.67;;;7.26;56.84
68380;BME280;57711;53.196;19.638;2023-02-28T13:18:46;101621.02;;;7.24;57.29
68380;BME280;57711;53.196;19.638;2023-02-28T13:21:24;101622.80;;;7.24;57.09
68380;BME280;57711;53.196;19.638;2023-02-28T13:29:04;101617.77;;;7.01;56.83
68380;BME280;57711;53.196;19.638;2023-02-28T13:32:20;101617.66;;;6.99;57.10
68380;BME280;57711;53.196;19.638;2023-02-28T13:42:47;101605.94;;;6.86;56.71
68380;BME280;57711;53.196;19.638;2023-02-28T13:45:27;101603.19;;;6.80;56.79
68380;BME280;57711;53.196;19.638;2023-02-28T13:48:00;101598.77;;;6.75;56.75
68380;BME280;57711;53.196;19.638;2023-02-28T13:50:32;101602.10;;;6.73;56.94
68380;BME280;57711;53.196;19.638;2023-02-28T13:55:49;101595.57;;;6.74;56.97
68380;BME280;57711;53.196;19.638;2023-02-28T13:58:41;101588.59;;;6.70;56.72
68380;BME280;57711;53.196;19.638;2023-02-28T14:04:12;101583.80;;;6.59;56.74
68380;BME280;57711;53.196;19.638;2023-02-28T14:06:48;101573.86;;;6.59;56.72
68380;BME280;57711;53.196;19.638;2023-02-28T14:09:40;101571.24;;;6.54;56.52
68380;BME280;57711;53.196;19.638;2023-02-28T14:17:56;101582.06;;;6.36;56.44
68380;BME280;57711;53.196;19.638;2023-02-28T14:20:29;101580.41;;;6.33;56.41
68380;BME280;57711;53.196;19.638;2023-02-28T14:23:10;101583.12;;;6.33;56.47
68380;BME280;57711;53.196;19.638;2023-02-28T14:25:58;101579.33;;;6.30;56.38
68380;BME280;57711;53.196;19.638;2023-02-28T14:29:07;101584.58;;;6.25;56.31
68380;BME280;57711;53.196;19.638;2023-02-28T14:32:35;101580.71;;;6.20;56.26
68380;BME280;57711;53.196;19.638;2023-02-28T14:34:43;101579.91;;;6.15;56.12
68380;BME280;57711;53.196;19.638;2023-02-28T14:37:20;101581.50;;;6.08;56.13
68380;BME280;57711;53.196;19.638;2023-02-28T14:39:50;101581.55;;;5.99;56.03
68380;BME280;57711;53.196;19.638;2023-02-28T14:42:36;101585.45;;;5.93;55.91
68380;BME280;57711;53.196;19.638;2023-02-28T14:45:05;101588.41;;;5.83;55.94
68380;BME280;57711;53.196;19.638;2023-02-28T14:47:33;101591.21;;;5.77;55.79
68380;BME280;57711;53.196;19.638;2023-02-28T14:50:03;101587.56;;;5.70;55.92